sensor_id;sensor_type;location;lat;lon;timestamp;P1;durP1;ratioP1;P2;durP2;ratioP2
18445;SDS011;9352;50.888;4.466;2024-03-25T00:01:04;25.27;;;11.10;;
18445;SDS011;9352;50.888;4.466;2024-03-25T00:03:32;24.83;;;11.85;;
18445;SDS011;9352;50.888;4.466;2024-03-25T00:05:59;29.35;;;11.80;;
18445;SDS011;9352;50.888;4.466;2024-03-25T00:08:26;23.95;;;11.45;;
18445;SDS011;9352;50.888;4.466;2024-03-25T00:10:52;26.65;;;12.20;;
18445;SDS011;9352;50.888;4.466;2024-03-25T00:13:20;31.88;;;14.10;;
18445;SDS011;9352;50.888;4.466;2024-03-25T00:15:46;23.80;;;11.27;;
18445;SDS011;9352;50.888;4.466;2024-03-25T00:18:13;15.97;;;8.63;;
18445;SDS011;9352;50.888;4.466;2024-03-25T00:20:40;16.35;;;9.10;;
18445;SDS011;9352;50.888;4.466;2024-03-25T00:23:07;26.05;;;9.15;;
18445;SDS011;9352;50.888;4.466;2024-03-25T00:25:33;17.48;;;8.90;;
18445;SDS011;9352;50.888;4.466;2024-03-25T00:28:00;20.80;;;8.68;;
18445;SDS011;9352;50.888;4.466;2024-03-25T00:30:26;16.33;;;8.30;;
18445;SDS011;9352;50.888;4.466;2024-03-25T00:32:53;18.38;;;7.78;;
18445;SDS011;9352;50.888;4.466;2024-03-25T00:35:18;19.02;;;8.10;;
18445;SDS011;9352;50.888;4.466;2024-03-25T00:37:47;21.80;;;8.27;;
18445;SDS011;9352;50.888;4.466;2024-03-25T00:40:13;16.77;;;8.52;;
18445;SDS011;9352;50.888;4.466;2024-03-25T00:42:40;29.33;;;9.73;;
18445;SDS011;9352;50.888;4.466;2024-03-25T00:45:06;21.17;;;10.38;;
18445;SDS011;9352;50.888;4.466;2024-03-25T00:47:33;21.17;;;10.13;;
18445;SDS011;9352;50.888;4.466;2024-03-25T00:49:59;19.88;;;8.73;;
18445;SDS011;9352;50.888;4.466;2024-03-25T00:52:26;19.30;;;8.55;;
18445;SDS011;9352;50.888;4.466;2024-03-25T00:54:54;19.23;;;7.53;;
18445;SDS011;9352;50.888;4.466;2024-03-25T00:57:20;15.60;;;7.32;;
18445;SDS011;9352;50.888;4.466;2024-03-25T00:59:47;18.10;;;8.05;;
18445;SDS011;9352;50.888;4.466;2024-03-25T01:02:14;16.23;;;7.30;;
18445;SDS011;9352;50.888;4.466;2024-03-25T01:04:40;15.85;;;7.72;;
18445;SDS011;9352;50.888;4.466;2024-03-25T01:07:06;20.55;;;8.60;;
18445;SDS011;9352;50.888;4.466;2024-03-25T01:09:33;19.42;;;9.20;;
18445;SDS011;9352;50.888;4.466;2024-03-25T01:12:01;21.88;;;9.52;;
18445;SDS011;9352;50.888;4.466;2024-03-25T01:14:27;22.42;;;9.82;;
18445;SDS011;9352;50.888;4.466;2024-03-25T01:16:54;22.67;;;9.23;;
18445;SDS011;9352;50.888;4.466;2024-03-25T01:19:21;19.95;;;8.77;;
18445;SDS011;9352;50.888;4.466;2024-03-25T01:21:48;17.80;;;8.20;;
18445;SDS011;9352;50.888;4.466;2024-03-25T01:24:15;12.90;;;7.38;;
18445;SDS011;9352;50.888;4.466;2024-03-25T01:26:41;18.40;;;8.27;;
18445;SDS011;9352;50.888;4.466;2024-03-25T01:29:09;20.75;;;9.00;;
18445;SDS011;9352;50.888;4.466;2024-03-25T01:31:36;24.98;;;10.82;;
18445;SDS011;9352;50.888;4.466;2024-03-25T01:34:01;27.23;;;11.03;;
18445;SDS011;9352;50.888;4.466;2024-03-25T01:36:28;30.27;;;10.77;;
18445;SDS011;9352;50.888;4.466;2024-03-25T01:38:54;26.63;;;11.15;;
18445;SDS011;9352;50.888;4.466;2024-03-25T01:41:21;17.00;;;7.93;;
18445;SDS011;9352;50.888;4.466;2024-03-25T01:43:48;15.90;;;6.90;;
18445;SDS011;9352;50.888;4.466;2024-03-25T01:46:16;15.50;;;6.78;;
18445;SDS011;9352;50.888;4.466;2024-03-25T01:48:43;18.08;;;6.88;;
18445;SDS011;9352;50.888;4.466;2024-03-25T01:51:11;12.77;;;6.82;;
18445;SDS011;9352;50.888;4.466;2024-03-25T01:53:38;13.68;;;7.00;;
18445;SDS011;9352;50.888;4.466;2024-03-25T01:56:06;12.88;;;6.90;;
18445;SDS011;9352;50.888;4.466;2024-03-25T01:58:32;14.27;;;7.45;;
18445;SDS011;9352;50.888;4.466;2024-03-25T02:01:01;9.95;;;5.93;;
18445;SDS011;9352;50.888;4.466;2024-03-25T02:03:29;20.33;;;5.87;;
18445;SDS011;9352;50.888;4.466;2024-03-25T02:05:58;15.20;;;5.78;;
18445;SDS011;9352;50.888;4.466;2024-03-25T02:08:27;10.15;;;5.50;;
18445;SDS011;9352;50.888;4.466;2024-03-25T02:10:56;19.13;;;6.22;;
18445;SDS011;9352;50.888;4.466;2024-03-25T02:13:23;10.07;;;5.70;;
18445;SDS011;9352;50.888;4.466;2024-03-25T02:15:50;13.00;;;5.75;;
18445;SDS011;9352;50.888;4.466;2024-03-25T02:18:16;16.23;;;5.83;;
18445;SDS011;9352;50.888;4.466;2024-03-25T02:20:45;13.90;;;5.85;;
18445;SDS011;9352;50.888;4.466;2024-03-25T02:23:11;23.15;;;5.57;;
18445;SDS011;9352;50.888;4.466;2024-03-25T02:25:39;13.88;;;5.50;;
18445;SDS011;9352;50.888;4.466;2024-03-25T02:28:08;11.85;;;5.60;;
18445;SDS011;9352;50.888;4.466;2024-03-25T02:30:36;17.75;;;6.05;;
18445;SDS011;9352;50.888;4.466;2024-03-25T02:33:02;11.07;;;5.38;;
18445;SDS011;9352;50.888;4.466;2024-03-25T02:35:28;13.68;;;5.25;;
18445;SDS011;9352;50.888;4.466;2024-03-25T02:37:55;14.90;;;5.63;;
18445;SDS011;9352;50.888;4.466;2024-03-25T02:40:22;13.02;;;5.97;;
18445;SDS011;9352;50.888;4.466;2024-03-25T02:42:48;17.87;;;6.47;;
18445;SDS011;9352;50.888;4.466;2024-03-25T02:45:17;16.47;;;6.37;;
18445;SDS011;9352;50.888;4.466;2024-03-25T02:47:43;15.52;;;5.97;;
18445;SDS011;9352;50.888;4.466;2024-03-25T02:50:10;14.90;;;5.67;;
18445;SDS011;9352;50.888;4.466;2024-03-25T02:52:35;18.60;;;6.20;;
18445;SDS011;9352;50.888;4.466;2024-03-25T02:55:02;11.75;;;5.57;;
18445;SDS011;9352;50.888;4.466;2024-03-25T02:57:29;18.20;;;6.27;;
18445;SDS011;9352;50.888;4.466;2024-03-25T02:59:56;16.42;;;6.25;;
18445;SDS011;9352;50.888;4.466;2024-03-25T03:02:23;16.55;;;5.88;;
18445;SDS011;9352;50.888;4.466;2024-03-25T03:04:50;19.98;;;6.93;;
18445;SDS011;9352;50.888;4.466;2024-03-25T03:07:16;20.60;;;6.43;;
18445;SDS011;9352;50.888;4.466;2024-03-25T03:09:42;22.70;;;6.47;;
18445;SDS011;9352;50.888;4.466;2024-03-25T03:12:08;17.13;;;6.70;;
18445;SDS011;9352;50.888;4.466;2024-03-25T03:14:35;16.60;;;5.93;;
18445;SDS011;9352;50.888;4.466;2024-03-25T03:17:01;21.52;;;6.97;;
18445;SDS011;9352;50.888;4.466;2024-03-25T03:19:31;21.10;;;7.10;;
18445;SDS011;9352;50.888;4.466;2024-03-25T03:21:57;21.48;;;7.25;;
18445;SDS011;9352;50.888;4.466;2024-03-25T03:24:24;20.97;;;7.17;;
18445;SDS011;9352;50.888;4.466;2024-03-25T03:26:50;24.60;;;7.65;;
18445;SDS011;9352;50.888;4.466;2024-03-25T03:29:17;21.70;;;7.30;;
18445;SDS011;9352;50.888;4.466;2024-03-25T03:31:43;27.90;;;8.37;;
18445;SDS011;9352;50.888;4.466;2024-03-25T03:34:10;27.13;;;7.70;;
18445;SDS011;9352;50.888;4.466;2024-03-25T03:36:37;26.23;;;7.85;;
18445;SDS011;9352;50.888;4.466;2024-03-25T03:39:05;25.02;;;7.35;;
18445;SDS011;9352;50.888;4.466;2024-03-25T03:41:33;33.58;;;8.07;;
18445;SDS011;9352;50.888;4.466;2024-03-25T03:44:00;30.50;;;8.00;;
18445;SDS011;9352;50.888;4.466;2024-03-25T03:46:26;23.48;;;7.82;;
18445;SDS011;9352;50.888;4.466;2024-03-25T03:48:53;32.90;;;8.20;;
18445;SDS011;9352;50.888;4.466;2024-03-25T03:51:19;29.35;;;8.98;;
18445;SDS011;9352;50.888;4.466;2024-03-25T03:53:48;35.87;;;9.13;;
18445;SDS011;9352;50.888;4.466;2024-03-25T03:56:13;30.63;;;8.67;;
18445;SDS011;9352;50.888;4.466;2024-03-25T03:58:41;32.10;;;8.52;;
18445;SDS011;9352;50.888;4.466;2024-03-25T04:01:13;42.30;;;9.88;;
18445;SDS011;9352;50.888;4.466;2024-03-25T04:03:41;32.63;;;9.15;;
18445;SDS011;9352;50.888;4.466;2024-03-25T04:06:08;31.87;;;9.17;;
18445;SDS011;9352;50.888;4.466;2024-03-25T04:08:36;27.45;;;9.32;;
18445;SDS011;9352;50.888;4.466;2024-03-25T04:11:04;31.90;;;8.82;;
18445;SDS011;9352;50.888;4.466;2024-03-25T04:13:32;31.15;;;8.98;;
18445;SDS011;9352;50.888;4.466;2024-03-25T04:16:00;30.58;;;10.05;;
18445;SDS011;9352;50.888;4.466;2024-03-25T04:18:29;35.85;;;9.68;;
18445;SDS011;9352;50.888;4.466;2024-03-25T04:20:55;33.33;;;10.87;;
18445;SDS011;9352;50.888;4.466;2024-03-25T04:23:22;38.50;;;10.35;;
18445;SDS011;9352;50.888;4.466;2024-03-25T04:25:48;42.33;;;10.90;;
18445;SDS011;9352;50.888;4.466;2024-03-25T04:28:17;32.25;;;10.45;;
18445;SDS011;9352;50.888;4.466;2024-03-25T04:30:43;34.17;;;10.20;;
18445;SDS011;9352;50.888;4.466;2024-03-25T04:33:09;46.28;;;10.68;;
18445;SDS011;9352;50.888;4.466;2024-03-25T04:35:35;37.35;;;11.07;;
18445;SDS011;9352;50.888;4.466;2024-03-25T04:38:02;41.13;;;11.52;;
18445;SDS011;9352;50.888;4.466;2024-03-25T04:40:28;42.97;;;12.18;;
18445;SDS011;9352;50.888;4.466;2024-03-25T04:42:55;51.13;;;11.90;;
18445;SDS011;9352;50.888;4.466;2024-03-25T04:45:22;56.67;;;12.63;;
18445;SDS011;9352;50.888;4.466;2024-03-25T04:47:48;45.05;;;13.45;;
18445;SDS011;9352;50.888;4.466;2024-03-25T04:50:14;60.38;;;13.77;;
18445;SDS011;9352;50.888;4.466;2024-03-25T04:52:40;50.08;;;13.40;;
18445;SDS011;9352;50.888;4.466;2024-03-25T04:55:06;56.90;;;13.75;;
18445;SDS011;9352;50.888;4.466;2024-03-25T04:57:32;48.63;;;13.15;;
18445;SDS011;9352;50.888;4.466;2024-03-25T04:59:58;65.18;;;13.02;;
18445;SDS011;9352;50.888;4.466;2024-03-25T05:02:25;44.15;;;12.60;;
18445;SDS011;9352;50.888;4.466;2024-03-25T05:04:51;39.15;;;12.50;;
18445;SDS011;9352;50.888;4.466;2024-03-25T05:07:17;48.72;;;12.70;;
18445;SDS011;9352;50.888;4.466;2024-03-25T05:09:43;43.55;;;11.93;;
18445;SDS011;9352;50.888;4.466;2024-03-25T05:12:09;40.03;;;11.70;;
18445;SDS011;9352;50.888;4.466;2024-03-25T05:14:35;46.63;;;12.60;;
18445;SDS011;9352;50.888;4.466;2024-03-25T05:17:01;52.60;;;13.45;;
18445;SDS011;9352;50.888;4.466;2024-03-25T05:19:28;41.45;;;12.95;;
18445;SDS011;9352;50.888;4.466;2024-03-25T05:21:54;48.33;;;13.52;;
18445;SDS011;9352;50.888;4.466;2024-03-25T05:24:20;52.47;;;13.30;;
18445;SDS011;9352;50.888;4.466;2024-03-25T05:26:46;52.00;;;14.70;;
18445;SDS011;9352;50.888;4.466;2024-03-25T05:29:12;50.58;;;13.48;;
18445;SDS011;9352;50.888;4.466;2024-03-25T05:31:38;54.17;;;14.70;;
18445;SDS011;9352;50.888;4.466;2024-03-25T05:34:20;54.33;;;14.68;;
18445;SDS011;9352;50.888;4.466;2024-03-25T05:36:47;54.92;;;14.43;;
18445;SDS011;9352;50.888;4.466;2024-03-25T05:39:13;53.87;;;14.73;;
18445;SDS011;9352;50.888;4.466;2024-03-25T05:41:39;56.25;;;14.68;;
18445;SDS011;9352;50.888;4.466;2024-03-25T05:44:05;75.65;;;14.38;;
18445;SDS011;9352;50.888;4.466;2024-03-25T05:46:31;59.28;;;14.80;;
18445;SDS011;9352;50.888;4.466;2024-03-25T05:48:57;58.33;;;16.00;;
18445;SDS011;9352;50.888;4.466;2024-03-25T05:51:26;41.50;;;12.93;;
18445;SDS011;9352;50.888;4.466;2024-03-25T05:53:53;59.25;;;16.30;;
18445;SDS011;9352;50.888;4.466;2024-03-25T05:56:19;67.10;;;20.00;;
18445;SDS011;9352;50.888;4.466;2024-03-25T05:58:45;63.90;;;16.45;;
18445;SDS011;9352;50.888;4.466;2024-03-25T06:01:11;67.00;;;17.52;;
18445;SDS011;9352;50.888;4.466;2024-03-25T06:03:37;62.33;;;16.95;;
18445;SDS011;9352;50.888;4.466;2024-03-25T06:06:03;63.92;;;17.50;;
18445;SDS011;9352;50.888;4.466;2024-03-25T06:08:29;76.05;;;17.52;;
18445;SDS011;9352;50.888;4.466;2024-03-25T06:10:59;76.22;;;17.77;;
18445;SDS011;9352;50.888;4.466;2024-03-25T06:13:26;71.25;;;17.77;;
18445;SDS011;9352;50.888;4.466;2024-03-25T06:15:52;75.68;;;18.40;;
18445;SDS011;9352;50.888;4.466;2024-03-25T06:18:18;66.32;;;18.15;;
18445;SDS011;9352;50.888;4.466;2024-03-25T06:20:44;70.10;;;18.35;;
18445;SDS011;9352;50.888;4.466;2024-03-25T06:23:09;70.47;;;18.30;;
18445;SDS011;9352;50.888;4.466;2024-03-25T06:25:35;67.80;;;18.27;;
18445;SDS011;9352;50.888;4.466;2024-03-25T06:28:03;70.32;;;18.50;;
18445;SDS011;9352;50.888;4.466;2024-03-25T06:30:29;75.22;;;19.33;;
18445;SDS011;9352;50.888;4.466;2024-03-25T06:33:13;68.80;;;18.58;;
18445;SDS011;9352;50.888;4.466;2024-03-25T06:35:58;60.97;;;17.50;;
18445;SDS011;9352;50.888;4.466;2024-03-25T06:38:24;66.43;;;19.10;;
18445;SDS011;9352;50.888;4.466;2024-03-25T06:40:50;69.88;;;18.65;;
18445;SDS011;9352;50.888;4.466;2024-03-25T06:43:17;65.13;;;19.33;;
18445;SDS011;9352;50.888;4.466;2024-03-25T06:45:43;76.78;;;21.08;;
18445;SDS011;9352;50.888;4.466;2024-03-25T06:48:09;68.68;;;20.67;;
18445;SDS011;9352;50.888;4.466;2024-03-25T06:50:35;77.25;;;20.45;;
18445;SDS011;9352;50.888;4.466;2024-03-25T06:53:01;59.72;;;18.27;;
18445;SDS011;9352;50.888;4.466;2024-03-25T06:55:27;65.30;;;17.77;;
18445;SDS011;9352;50.888;4.466;2024-03-25T06:57:53;61.85;;;16.55;;
18445;SDS011;9352;50.888;4.466;2024-03-25T07:00:20;61.47;;;18.40;;
18445;SDS011;9352;50.888;4.466;2024-03-25T07:02:47;58.63;;;17.55;;
18445;SDS011;9352;50.888;4.466;2024-03-25T07:05:13;61.85;;;19.48;;
18445;SDS011;9352;50.888;4.466;2024-03-25T07:07:39;64.35;;;17.75;;
18445;SDS011;9352;50.888;4.466;2024-03-25T07:10:05;71.53;;;16.30;;
18445;SDS011;9352;50.888;4.466;2024-03-25T07:12:31;46.95;;;15.60;;
18445;SDS011;9352;50.888;4.466;2024-03-25T07:14:57;45.15;;;14.00;;
18445;SDS011;9352;50.888;4.466;2024-03-25T07:17:25;49.53;;;15.73;;
18445;SDS011;9352;50.888;4.466;2024-03-25T07:19:51;53.58;;;14.10;;
18445;SDS011;9352;50.888;4.466;2024-03-25T07:22:17;47.55;;;13.93;;
18445;SDS011;9352;50.888;4.466;2024-03-25T07:24:43;41.80;;;13.85;;
18445;SDS011;9352;50.888;4.466;2024-03-25T07:27:09;39.35;;;13.25;;
18445;SDS011;9352;50.888;4.466;2024-03-25T07:29:35;44.13;;;14.77;;
18445;SDS011;9352;50.888;4.466;2024-03-25T07:32:01;44.20;;;12.48;;
18445;SDS011;9352;50.888;4.466;2024-03-25T07:34:29;42.85;;;11.85;;
18445;SDS011;9352;50.888;4.466;2024-03-25T07:36:55;49.88;;;11.93;;
18445;SDS011;9352;50.888;4.466;2024-03-25T07:39:21;47.92;;;12.82;;
18445;SDS011;9352;50.888;4.466;2024-03-25T07:41:47;41.35;;;12.50;;
18445;SDS011;9352;50.888;4.466;2024-03-25T07:44:13;36.25;;;10.80;;
18445;SDS011;9352;50.888;4.466;2024-03-25T07:46:39;38.47;;;11.13;;
18445;SDS011;9352;50.888;4.466;2024-03-25T07:49:05;30.88;;;10.48;;
18445;SDS011;9352;50.888;4.466;2024-03-25T07:51:32;38.53;;;10.80;;
18445;SDS011;9352;50.888;4.466;2024-03-25T07:53:58;32.28;;;10.13;;
18445;SDS011;9352;50.888;4.466;2024-03-25T07:56:24;26.50;;;10.05;;
18445;SDS011;9352;50.888;4.466;2024-03-25T07:58:50;33.13;;;10.18;;
18445;SDS011;9352;50.888;4.466;2024-03-25T08:01:16;28.73;;;9.10;;
18445;SDS011;9352;50.888;4.466;2024-03-25T08:03:42;25.92;;;8.18;;
18445;SDS011;9352;50.888;4.466;2024-03-25T08:06:07;32.03;;;7.85;;
18445;SDS011;9352;50.888;4.466;2024-03-25T08:08:35;25.35;;;9.35;;
18445;SDS011;9352;50.888;4.466;2024-03-25T08:11:01;27.02;;;8.77;;
18445;SDS011;9352;50.888;4.466;2024-03-25T08:13:27;27.45;;;9.85;;
18445;SDS011;9352;50.888;4.466;2024-03-25T08:15:53;40.97;;;10.77;;
18445;SDS011;9352;50.888;4.466;2024-03-25T08:18:18;24.23;;;8.80;;
18445;SDS011;9352;50.888;4.466;2024-03-25T08:20:44;21.05;;;7.55;;
18445;SDS011;9352;50.888;4.466;2024-03-25T08:23:10;31.20;;;9.23;;
18445;SDS011;9352;50.888;4.466;2024-03-25T08:25:38;29.08;;;8.90;;
18445;SDS011;9352;50.888;4.466;2024-03-25T08:28:04;28.23;;;9.10;;
18445;SDS011;9352;50.888;4.466;2024-03-25T08:30:30;23.67;;;8.98;;
18445;SDS011;9352;50.888;4.466;2024-03-25T08:32:56;25.70;;;8.00;;
18445;SDS011;9352;50.888;4.466;2024-03-25T08:35:22;27.48;;;7.75;;
18445;SDS011;9352;50.888;4.466;2024-03-25T08:37:48;23.42;;;8.40;;
18445;SDS011;9352;50.888;4.466;2024-03-25T08:40:14;28.30;;;8.45;;
18445;SDS011;9352;50.888;4.466;2024-03-25T08:42:41;40.00;;;11.32;;
18445;SDS011;9352;50.888;4.466;2024-03-25T08:45:07;29.23;;;10.77;;
18445;SDS011;9352;50.888;4.466;2024-03-25T08:47:33;21.40;;;8.68;;
18445;SDS011;9352;50.888;4.466;2024-03-25T08:49:59;27.38;;;8.43;;
18445;SDS011;9352;50.888;4.466;2024-03-25T08:52:25;23.52;;;7.45;;
18445;SDS011;9352;50.888;4.466;2024-03-25T08:54:51;21.38;;;6.88;;
18445;SDS011;9352;50.888;4.466;2024-03-25T08:57:17;20.60;;;7.35;;
18445;SDS011;9352;50.888;4.466;2024-03-25T08:59:44;24.73;;;7.10;;
18445;SDS011;9352;50.888;4.466;2024-03-25T09:02:10;19.48;;;5.90;;
18445;SDS011;9352;50.888;4.466;2024-03-25T09:04:36;20.52;;;5.35;;
18445;SDS011;9352;50.888;4.466;2024-03-25T09:07:02;15.68;;;5.93;;
18445;SDS011;9352;50.888;4.466;2024-03-25T09:09:28;15.60;;;5.13;;
18445;SDS011;9352;50.888;4.466;2024-03-25T09:12:13;17.02;;;5.05;;
18445;SDS011;9352;50.888;4.466;2024-03-25T09:14:39;12.13;;;4.40;;
18445;SDS011;9352;50.888;4.466;2024-03-25T09:17:06;14.65;;;3.72;;
18445;SDS011;9352;50.888;4.466;2024-03-25T09:19:32;17.08;;;3.88;;
18445;SDS011;9352;50.888;4.466;2024-03-25T09:21:58;13.15;;;4.15;;
18445;SDS011;9352;50.888;4.466;2024-03-25T09:24:24;8.15;;;3.97;;
18445;SDS011;9352;50.888;4.466;2024-03-25T09:26:50;11.27;;;4.50;;
18445;SDS011;9352;50.888;4.466;2024-03-25T09:29:16;9.55;;;4.65;;
18445;SDS011;9352;50.888;4.466;2024-03-25T09:31:42;19.45;;;5.10;;
18445;SDS011;9352;50.888;4.466;2024-03-25T09:34:09;12.52;;;5.10;;
18445;SDS011;9352;50.888;4.466;2024-03-25T09:36:35;12.13;;;4.45;;
18445;SDS011;9352;50.888;4.466;2024-03-25T09:39:01;11.75;;;4.57;;
18445;SDS011;9352;50.888;4.466;2024-03-25T09:41:27;13.30;;;4.20;;
18445;SDS011;9352;50.888;4.466;2024-03-25T09:43:55;12.13;;;4.63;;
18445;SDS011;9352;50.888;4.466;2024-03-25T09:46:21;11.23;;;3.92;;
18445;SDS011;9352;50.888;4.466;2024-03-25T09:48:48;15.25;;;4.07;;
18445;SDS011;9352;50.888;4.466;2024-03-25T09:51:19;14.88;;;4.55;;
18445;SDS011;9352;50.888;4.466;2024-03-25T09:53:45;9.50;;;4.13;;
18445;SDS011;9352;50.888;4.466;2024-03-25T09:56:11;10.70;;;4.20;;
18445;SDS011;9352;50.888;4.466;2024-03-25T09:58:38;12.07;;;3.83;;
18445;SDS011;9352;50.888;4.466;2024-03-25T10:01:05;14.27;;;3.97;;
18445;SDS011;9352;50.888;4.466;2024-03-25T10:03:31;11.57;;;4.55;;
18445;SDS011;9352;50.888;4.466;2024-03-25T10:05:57;8.93;;;4.00;;
18445;SDS011;9352;50.888;4.466;2024-03-25T10:08:24;12.02;;;4.40;;
18445;SDS011;9352;50.888;4.466;2024-03-25T10:10:50;10.25;;;4.07;;
18445;SDS011;9352;50.888;4.466;2024-03-25T10:13:16;7.40;;;3.40;;
18445;SDS011;9352;50.888;4.466;2024-03-25T10:15:42;10.88;;;4.20;;
18445;SDS011;9352;50.888;4.466;2024-03-25T10:18:09;13.60;;;4.50;;
18445;SDS011;9352;50.888;4.466;2024-03-25T10:20:37;10.95;;;4.32;;
18445;SDS011;9352;50.888;4.466;2024-03-25T10:23:03;11.88;;;4.38;;
18445;SDS011;9352;50.888;4.466;2024-03-25T10:25:31;7.95;;;3.60;;
18445;SDS011;9352;50.888;4.466;2024-03-25T10:27:57;13.23;;;4.05;;
18445;SDS011;9352;50.888;4.466;2024-03-25T10:30:24;8.18;;;3.50;;
18445;SDS011;9352;50.888;4.466;2024-03-25T10:32:59;7.57;;;3.25;;
18445;SDS011;9352;50.888;4.466;2024-03-25T10:35:26;12.57;;;3.97;;
18445;SDS011;9352;50.888;4.466;2024-03-25T10:37:54;10.20;;;3.45;;
18445;SDS011;9352;50.888;4.466;2024-03-25T10:40:22;8.57;;;3.33;;
18445;SDS011;9352;50.888;4.466;2024-03-25T10:42:54;10.13;;;3.38;;
18445;SDS011;9352;50.888;4.466;2024-03-25T10:45:25;5.18;;;2.80;;
18445;SDS011;9352;50.888;4.466;2024-03-25T10:47:52;6.63;;;2.72;;
18445;SDS011;9352;50.888;4.466;2024-03-25T10:50:20;6.53;;;3.05;;
18445;SDS011;9352;50.888;4.466;2024-03-25T10:52:52;7.68;;;3.58;;
18445;SDS011;9352;50.888;4.466;2024-03-25T10:55:19;6.90;;;2.60;;
18445;SDS011;9352;50.888;4.466;2024-03-25T10:57:46;4.93;;;2.60;;
18445;SDS011;9352;50.888;4.466;2024-03-25T11:00:15;15.70;;;3.20;;
18445;SDS011;9352;50.888;4.466;2024-03-25T11:02:42;6.43;;;2.45;;
18445;SDS011;9352;50.888;4.466;2024-03-25T11:05:09;8.57;;;2.60;;
18445;SDS011;9352;50.888;4.466;2024-03-25T11:07:37;6.68;;;2.45;;
18445;SDS011;9352;50.888;4.466;2024-03-25T11:10:04;5.40;;;2.25;;
18445;SDS011;9352;50.888;4.466;2024-03-25T11:12:34;6.93;;;2.70;;
18445;SDS011;9352;50.888;4.466;2024-03-25T11:15:01;7.07;;;2.63;;
18445;SDS011;9352;50.888;4.466;2024-03-25T11:17:30;6.28;;;2.72;;
18445;SDS011;9352;50.888;4.466;2024-03-25T11:20:06;8.88;;;2.95;;
18445;SDS011;9352;50.888;4.466;2024-03-25T11:22:33;4.35;;;2.20;;
18445;SDS011;9352;50.888;4.466;2024-03-25T11:25:04;4.70;;;2.25;;
18445;SDS011;9352;50.888;4.466;2024-03-25T11:27:31;4.22;;;2.45;;
18445;SDS011;9352;50.888;4.466;2024-03-25T11:29:59;11.05;;;2.53;;
18445;SDS011;9352;50.888;4.466;2024-03-25T11:32:25;4.90;;;2.50;;
18445;SDS011;9352;50.888;4.466;2024-03-25T11:34:54;5.00;;;2.42;;
18445;SDS011;9352;50.888;4.466;2024-03-25T11:37:20;5.22;;;2.70;;
18445;SDS011;9352;50.888;4.466;2024-03-25T11:39:46;6.88;;;2.50;;
18445;SDS011;9352;50.888;4.466;2024-03-25T11:42:12;9.48;;;3.03;;
18445;SDS011;9352;50.888;4.466;2024-03-25T11:44:38;4.35;;;2.58;;
18445;SDS011;9352;50.888;4.466;2024-03-25T11:47:05;6.25;;;2.63;;
18445;SDS011;9352;50.888;4.466;2024-03-25T11:49:32;4.45;;;2.50;;
18445;SDS011;9352;50.888;4.466;2024-03-25T11:52:00;4.65;;;2.25;;
18445;SDS011;9352;50.888;4.466;2024-03-25T11:54:27;8.75;;;3.00;;
18445;SDS011;9352;50.888;4.466;2024-03-25T11:56:53;4.18;;;2.50;;
18445;SDS011;9352;50.888;4.466;2024-03-25T11:59:19;5.25;;;2.90;;
18445;SDS011;9352;50.888;4.466;2024-03-25T12:01:45;5.20;;;3.10;;
18445;SDS011;9352;50.888;4.466;2024-03-25T12:04:11;5.13;;;3.03;;
18445;SDS011;9352;50.888;4.466;2024-03-25T12:06:41;9.20;;;3.20;;
18445;SDS011;9352;50.888;4.466;2024-03-25T12:09:08;5.80;;;3.20;;
18445;SDS011;9352;50.888;4.466;2024-03-25T12:11:53;6.45;;;2.97;;
18445;SDS011;9352;50.888;4.466;2024-03-25T12:14:19;5.43;;;2.70;;
18445;SDS011;9352;50.888;4.466;2024-03-25T12:16:45;5.72;;;2.97;;
18445;SDS011;9352;50.888;4.466;2024-03-25T12:19:11;5.25;;;2.92;;
18445;SDS011;9352;50.888;4.466;2024-03-25T12:21:37;3.88;;;2.70;;
18445;SDS011;9352;50.888;4.466;2024-03-25T12:24:04;13.85;;;2.85;;
18445;SDS011;9352;50.888;4.466;2024-03-25T12:26:31;7.68;;;2.67;;
18445;SDS011;9352;50.888;4.466;2024-03-25T12:28:57;2.75;;;2.25;;
18445;SDS011;9352;50.888;4.466;2024-03-25T12:31:24;5.93;;;2.30;;
18445;SDS011;9352;50.888;4.466;2024-03-25T12:33:49;6.80;;;2.35;;
18445;SDS011;9352;50.888;4.466;2024-03-25T12:36:15;4.43;;;2.15;;
18445;SDS011;9352;50.888;4.466;2024-03-25T12:38:41;4.45;;;2.20;;
18445;SDS011;9352;50.888;4.466;2024-03-25T12:41:08;7.53;;;2.47;;
18445;SDS011;9352;50.888;4.466;2024-03-25T12:43:37;5.90;;;2.42;;
18445;SDS011;9352;50.888;4.466;2024-03-25T12:46:07;3.67;;;1.83;;
18445;SDS011;9352;50.888;4.466;2024-03-25T12:48:34;7.22;;;2.03;;
18445;SDS011;9352;50.888;4.466;2024-03-25T12:50:59;5.40;;;2.53;;
18445;SDS011;9352;50.888;4.466;2024-03-25T12:53:25;5.20;;;2.22;;
18445;SDS011;9352;50.888;4.466;2024-03-25T12:55:52;3.35;;;2.20;;
18445;SDS011;9352;50.888;4.466;2024-03-25T12:58:18;4.28;;;2.20;;
18445;SDS011;9352;50.888;4.466;2024-03-25T13:00:45;5.68;;;2.65;;
18445;SDS011;9352;50.888;4.466;2024-03-25T13:03:11;10.80;;;2.22;;
18445;SDS011;9352;50.888;4.466;2024-03-25T13:05:38;6.57;;;2.45;;
18445;SDS011;9352;50.888;4.466;2024-03-25T13:08:04;7.50;;;2.65;;
18445;SDS011;9352;50.888;4.466;2024-03-25T13:10:31;4.45;;;2.15;;
18445;SDS011;9352;50.888;4.466;2024-03-25T13:12:57;15.73;;;3.53;;
18445;SDS011;9352;50.888;4.466;2024-03-25T13:15:23;6.10;;;2.30;;
18445;SDS011;9352;50.888;4.466;2024-03-25T13:17:50;7.28;;;2.45;;
18445;SDS011;9352;50.888;4.466;2024-03-25T13:20:16;3.22;;;2.05;;
18445;SDS011;9352;50.888;4.466;2024-03-25T13:22:42;5.30;;;2.08;;
18445;SDS011;9352;50.888;4.466;2024-03-25T13:25:09;11.15;;;2.30;;
18445;SDS011;9352;50.888;4.466;2024-03-25T13:27:35;3.25;;;2.00;;
18445;SDS011;9352;50.888;4.466;2024-03-25T13:30:01;5.50;;;1.80;;
18445;SDS011;9352;50.888;4.466;2024-03-25T13:32:27;3.10;;;2.03;;
18445;SDS011;9352;50.888;4.466;2024-03-25T13:34:54;3.53;;;1.60;;
18445;SDS011;9352;50.888;4.466;2024-03-25T13:37:20;3.45;;;1.55;;
18445;SDS011;9352;50.888;4.466;2024-03-25T13:39:46;5.30;;;2.33;;
18445;SDS011;9352;50.888;4.466;2024-03-25T13:42:12;6.40;;;2.00;;
18445;SDS011;9352;50.888;4.466;2024-03-25T13:44:39;6.35;;;1.50;;
18445;SDS011;9352;50.888;4.466;2024-03-25T13:47:05;5.88;;;2.05;;
18445;SDS011;9352;50.888;4.466;2024-03-25T13:49:31;4.65;;;1.90;;
18445;SDS011;9352;50.888;4.466;2024-03-25T13:52:01;3.50;;;1.80;;
18445;SDS011;9352;50.888;4.466;2024-03-25T13:54:28;8.00;;;2.05;;
18445;SDS011;9352;50.888;4.466;2024-03-25T13:56:54;2.30;;;1.85;;
18445;SDS011;9352;50.888;4.466;2024-03-25T13:59:20;4.03;;;1.77;;
18445;SDS011;9352;50.888;4.466;2024-03-25T14:01:46;3.00;;;1.83;;
18445;SDS011;9352;50.888;4.466;2024-03-25T14:04:13;3.78;;;1.80;;
18445;SDS011;9352;50.888;4.466;2024-03-25T14:06:39;22.90;;;2.80;;
18445;SDS011;9352;50.888;4.466;2024-03-25T14:09:06;3.30;;;1.55;;
18445;SDS011;9352;50.888;4.466;2024-03-25T14:11:32;4.95;;;1.88;;
18445;SDS011;9352;50.888;4.466;2024-03-25T14:13:58;2.92;;;1.70;;
18445;SDS011;9352;50.888;4.466;2024-03-25T14:16:24;6.18;;;1.60;;
18445;SDS011;9352;50.888;4.466;2024-03-25T14:18:50;2.88;;;1.70;;
18445;SDS011;9352;50.888;4.466;2024-03-25T14:21:16;6.28;;;1.60;;
18445;SDS011;9352;50.888;4.466;2024-03-25T14:23:43;6.15;;;2.00;;
18445;SDS011;9352;50.888;4.466;2024-03-25T14:26:11;4.72;;;1.75;;
18445;SDS011;9352;50.888;4.466;2024-03-25T14:28:37;4.78;;;1.88;;
18445;SDS011;9352;50.888;4.466;2024-03-25T14:31:05;4.38;;;2.00;;
18445;SDS011;9352;50.888;4.466;2024-03-25T14:33:31;3.35;;;1.90;;
18445;SDS011;9352;50.888;4.466;2024-03-25T14:35:57;6.22;;;1.85;;
18445;SDS011;9352;50.888;4.466;2024-03-25T14:38:23;8.93;;;2.17;;
18445;SDS011;9352;50.888;4.466;2024-03-25T14:40:49;1.92;;;1.50;;
18445;SDS011;9352;50.888;4.466;2024-03-25T14:43:17;3.30;;;1.70;;
18445;SDS011;9352;50.888;4.466;2024-03-25T14:45:43;5.93;;;2.10;;